Time;durP1;ratioP1;P1;durP2;ratioP2;P2;SDS_P1;SDS_P2;PMS_P1;PMS_P2;Temp;Humidity;BMP_temperature;BMP_pressure;BME280_temperature;BME280_humidity;BME280_pressure;Samples;Min_cycle;Max_cycle;Signal;HPM_P1;HPM_P2
2022/03/08 00:02:29;;;;;;;34.5;21.7;;;;;;;-3.04;67.69336;940.7997;;;;
2022/03/08 00:05:02;;;;;;;32.6;21.3;;;;;;;-3.08;67.87598;940.7427;;;;
2022/03/08 00:07:45;;;;;;;36.6;22.5;;;;;;;-3.14;68.25195;940.7249;;;;
2022/03/08 00:10:16;;;;;;;33.5;20.7;;;;;;;-3.2;68.33008;940.6483;;;;
2022/03/08 00:12:46;;;;;;;31.2;20.2;;;;;;;-3.35;68.88184;940.6738;;;;
2022/03/08 00:15:20;;;;;;;34.9;20.9;;;;;;;-3.45;69.59277;940.5664;;;;
2022/03/08 00:17:57;;;;;;;37.9;21.7;;;;;;;-3.39;69.53711;940.6556;;;;
2022/03/08 00:20:33;;;;;;;34.4;21.4;;;;;;;-3.26;68.90625;940.628;;;;
2022/03/08 00:23:08;;;;;;;33.9;21.1;;;;;;;-3.34;69.22559;940.6766;;;;
2022/03/08 00:25:40;;;;;;;32.1;20.1;;;;;;;-3.31;68.9873;940.6526;;;;
2022/03/08 00:28:13;;;;;;;34.4;21;;;;;;;-3.39;68.69922;940.7064;;;;
2022/03/08 00:30:51;;;;;;;36.2;21.8;;;;;;;-3.47;69.28027;940.5934;;;;
2022/03/08 00:33:22;;;;;;;33.7;21.5;;;;;;;-3.39;69.26074;940.6516;;;;
2022/03/08 00:35:49;;;;;;;34;21;;;;;;;-3.41;69.33691;940.6767;;;;
2022/03/08 00:38:15;;;;;;;35.6;22;;;;;;;-3.39;69.07324;940.6541;;;;
2022/03/08 00:40:57;;;;;;;33.9;21.2;;;;;;;-3.46;69.18262;940.6286;;;;
2022/03/08 00:43:24;;;;;;;34.5;21.2;;;;;;;-3.54;69.65527;940.5947;;;;
2022/03/08 00:45:56;;;;;;;35.3;21.7;;;;;;;-3.68;70.25098;940.6031;;;;
2022/03/08 00:48:30;;;;;;;37.2;22.8;;;;;;;-3.7;70.58887;940.6199;;;;
2022/03/08 00:51:08;;;;;;;36.8;22.5;;;;;;;-3.65;70.54297;940.6021;;;;
2022/03/08 00:53:33;;;;;;;35;22.1;;;;;;;-3.7;70.68945;940.5502;;;;
2022/03/08 00:55:58;;;;;;;34.4;21.6;;;;;;;-3.74;70.99121;940.5587;;;;
2022/03/08 00:58:23;;;;;;;34.5;21.9;;;;;;;-3.83;71.27539;940.4892;;;;
2022/03/08 01:00:48;;;;;;;38;22;;;;;;;-3.86;71.52344;940.3939;;;;
2022/03/08 01:03:15;;;;;;;36.4;22.2;;;;;;;-3.88;71.6416;940.4875;;;;
2022/03/08 01:05:41;;;;;;;34;21.5;;;;;;;-3.93;71.70898;940.481;;;;
2022/03/08 01:08:07;;;;;;;38;22.6;;;;;;;-3.75;71.3418;940.3962;;;;
2022/03/08 01:10:32;;;;;;;35.7;22;;;;;;;-3.7;70.87695;940.4334;;;;
2022/03/08 01:13:00;;;;;;;36.7;22.3;;;;;;;-3.81;71.35547;940.3777;;;;
2022/03/08 01:15:25;;;;;;;34.7;21.3;;;;;;;-3.81;71.44434;940.4119;;;;
2022/03/08 01:17:50;;;;;;;36;22;;;;;;;-3.97;71.89063;940.2264;;;;
2022/03/08 01:23:12;;;;;;;36.5;21.7;;;;;;;-4.01;72.29102;940.3474;;;;
2022/03/08 01:25:40;;;;;;;35.1;21.9;;;;;;;-4.09;72.51074;940.3393;;;;
2022/03/08 01:28:06;;;;;;;38.6;22.4;;;;;;;-4.22;73.43652;940.3248;;;;
2022/03/08 01:30:30;;;;;;;38.4;23.3;;;;;;;-4.18;73.49805;940.2797;;;;
2022/03/08 01:32:58;;;;;;;38.9;23.2;;;;;;;-4.21;73.58008;940.2198;;;;
2022/03/08 01:35:23;;;;;;;36.4;22.6;;;;;;;-4.36;74.25879;940.3401;;;;
2022/03/08 01:37:50;;;;;;;40.9;22.6;;;;;;;-4.32;74.2002;940.205;;;;
2022/03/08 01:40:16;;;;;;;36.9;22.4;;;;;;;-4.35;74.19629;940.1522;;;;
2022/03/08 01:42:43;;;;;;;36.4;22.2;;;;;;;-4.42;74.65723;940.2729;;;;
2022/03/08 01:45:08;;;;;;;36.7;22.4;;;;;;;-4.3;74.2041;940.1211;;;;
2022/03/08 01:47:37;;;;;;;44.6;23.6;;;;;;;-4.24;73.9502;940.1205;;;;
2022/03/08 01:50:02;;;;;;;39.1;23;;;;;;;-4.19;73.71582;940.1381;;;;
2022/03/08 01:52:29;;;;;;;34;22;;;;;;;-4.26;73.71582;940.0921;;;;
2022/03/08 01:54:54;;;;;;;39.2;22.8;;;;;;;-4.17;73.5;940.0574;;;;
2022/03/08 01:57:23;;;;;;;35.1;22;;;;;;;-4.32;73.8584;940.0496;;;;
2022/03/08 01:59:46;;;;;;;39.1;23.1;;;;;;;-4.36;74.17188;940.0048;;;;
2022/03/08 02:02:11;;;;;;;35.4;22.2;;;;;;;-4.35;73.96289;939.9855;;;;
2022/03/08 02:04:40;;;;;;;36.8;22.3;;;;;;;-4.41;73.85352;939.9791;;;;
2022/03/08 02:07:07;;;;;;;38;22.7;;;;;;;-4.46;73.71387;939.9131;;;;
2022/03/08 02:09:33;;;;;;;38.8;22.9;;;;;;;-4.45;73.58301;940.0083;;;;
2022/03/08 02:11:58;;;;;;;36.7;22.2;;;;;;;-4.52;73.60352;940.0004;;;;
2022/03/08 02:14:27;;;;;;;36;22.4;;;;;;;-4.57;73.96875;939.9534;;;;
2022/03/08 02:16:56;;;;;;;36.2;21.8;;;;;;;-4.64;74.05664;939.9512;;;;
2022/03/08 02:19:23;;;;;;;37;21.3;;;;;;;-4.78;74.72656;939.9554;;;;
2022/03/08 02:21:49;;;;;;;37.1;22.5;;;;;;;-4.81;75.05957;940.0242;;;;
2022/03/08 02:24:16;;;;;;;37.9;22.2;;;;;;;-4.76;74.98242;939.9398;;;;
2022/03/08 02:26:41;;;;;;;38.1;22.9;;;;;;;-4.8;75.04102;939.9743;;;;
2022/03/08 02:30:28;;;;;;;38.9;22.5;;;;;;;-4.72;74.9873;939.9444;;;;
2022/03/08 02:32:57;;;;;;;36.5;22.7;;;;;;;-4.86;75.47168;939.9444;;;;
2022/03/08 02:35:22;;;;;;;37.8;23.1;;;;;;;-4.79;75.61523;940.0822;;;;
2022/03/08 02:37:47;;;;;;;36.2;21.4;;;;;;;-4.79;75.2627;940.0511;;;;
2022/03/08 02:40:12;;;;;;;37.2;22.5;;;;;;;-4.84;75.37598;940.1312;;;;
2022/03/08 02:43:04;;;;;;;37.7;22.8;;;;;;;-4.76;75.45605;940.1334;;;;
2022/03/08 02:45:29;;;;;;;39.1;22.2;;;;;;;-4.65;74.99121;940.0645;;;;
2022/03/08 02:47:54;;;;;;;40;24;;;;;;;-4.69;74.99219;940.1282;;;;
2022/03/08 02:50:20;;;;;;;37.8;22.2;;;;;;;-4.59;74.89063;940.0944;;;;
2022/03/08 02:52:46;;;;;;;38;22.1;;;;;;;-4.52;74.5625;940.0737;;;;
2022/03/08 02:55:12;;;;;;;40.6;23.4;;;;;;;-4.47;74.06348;940.0162;;;;
2022/03/08 02:57:40;;;;;;;37.1;21.9;;;;;;;-4.46;73.55762;940.079;;;;
2022/03/08 03:00:05;;;;;;;34.6;21.1;;;;;;;-4.63;73.98242;939.9596;;;;
2022/03/08 03:02:34;;;;;;;34.3;21.7;;;;;;;-4.66;74.03125;939.9172;;;;
2022/03/08 03:04:59;;;;;;;37.1;21.9;;;;;;;-4.76;74.6084;939.9274;;;;
2022/03/08 03:07:51;;;;;;;37.1;22.5;;;;;;;-4.79;74.98535;939.8845;;;;
2022/03/08 03:10:21;;;;;;;39.3;22.8;;;;;;;-4.88;75.3457;939.8373;;;;
2022/03/08 03:12:49;;;;;;;36.8;22.2;;;;;;;-4.94;75.55566;939.9133;;;;
2022/03/08 03:15:18;;;;;;;39.1;22.8;;;;;;;-5.03;76.23145;939.8744;;;;
2022/03/08 03:17:42;;;;;;;37.5;22.7;;;;;;;-5.14;76.89551;939.7748;;;;
2022/03/08 03:20:18;;;;;;;39.7;22.7;;;;;;;-5.07;76.89551;939.758;;;;
2022/03/08 03:22:43;;;;;;;40.4;24.2;;;;;;;-5.07;76.83203;939.7449;;;;
2022/03/08 03:25:09;;;;;;;39.3;22.6;;;;;;;-5.06;76.72363;939.7751;;;;
2022/03/08 03:27:34;;;;;;;47.5;33.1;;;;;;;-4.96;76.47559;939.7896;;;;
2022/03/08 03:30:00;;;;;;;38.7;23.4;;;;;;;-4.92;76.20898;939.7274;;;;
2022/03/08 03:33:41;;;;;;;37.5;23.4;;;;;;;-4.98;76.02051;939.7573;;;;
2022/03/08 03:36:04;;;;;;;41.9;23;;;;;;;-4.99;76.00781;939.6697;;;;
2022/03/08 03:38:32;;;;;;;38.1;23.1;;;;;;;-4.97;75.79102;939.6711;;;;
2022/03/08 03:40:57;;;;;;;38.4;22.7;;;;;;;-4.93;75.40332;939.6671;;;;
2022/03/08 03:43:26;;;;;;;36.7;21.8;;;;;;;-5.05;75.82031;939.6534;;;;
2022/03/08 03:45:59;;;;;;;38;23.6;;;;;;;-5.17;76.42676;939.6199;;;;
2022/03/08 03:48:24;;;;;;;39.8;22.8;;;;;;;-5.27;76.79492;939.6306;;;;
2022/03/08 03:50:49;;;;;;;38.8;23.4;;;;;;;-5.42;77.64648;939.5492;;;;
2022/03/08 03:53:14;;;;;;;39.8;23;;;;;;;-5.36;77.66699;939.5616;;;;
2022/03/08 03:55:43;;;;;;;42.4;23.3;;;;;;;-5.39;77.75;939.6044;;;;
2022/03/08 03:58:08;;;;;;;43.6;23.8;;;;;;;-5.3;77.99609;939.5319;;;;
2022/03/08 04:02:35;;;;;;;40.7;23.6;;;;;;;-5.25;77.79785;939.5364;;;;
2022/03/08 04:05:00;;;;;;;39.7;22.7;;;;;;;-5.23;77.49512;939.5139;;;;
2022/03/08 04:07:29;;;;;;;43.1;23.7;;;;;;;-5.21;77.65234;939.5284;;;;
2022/03/08 04:10:53;;;;;;;38.9;22.5;;;;;;;-5.23;77.49316;939.5005;;;;
2022/03/08 04:13:23;;;;;;;41.5;23.5;;;;;;;-5.21;77.02539;939.5926;;;;
2022/03/08 04:15:55;;;;;;;40.8;23.8;;;;;;;-5.2;77.20313;939.4927;;;;
2022/03/08 04:18:20;;;;;;;43.7;24.7;;;;;;;-5.15;77.0127;939.5186;;;;
2022/03/08 04:20:47;;;;;;;39;22.7;;;;;;;-5.04;76.28418;939.6644;;;;
2022/03/08 04:23:12;;;;;;;38.4;23.1;;;;;;;-4.96;75.63867;939.5069;;;;
2022/03/08 04:25:44;;;;;;;37;22.4;;;;;;;-4.95;75.21289;939.585;;;;
2022/03/08 04:28:11;;;;;;;39.9;22.1;;;;;;;-4.93;75.28223;939.5648;;;;
2022/03/08 04:30:37;;;;;;;40.2;22.6;;;;;;;-4.78;74.8584;939.565;;;;
2022/03/08 04:33:04;;;;;;;37.7;22.6;;;;;;;-4.88;75.1582;939.4503;;;;
2022/03/08 04:35:29;;;;;;;36.6;22.1;;;;;;;-4.91;75.58301;939.5818;;;;
2022/03/08 04:37:58;;;;;;;37.1;21.6;;;;;;;-5.08;76.34375;939.5162;;;;
2022/03/08 04:40:23;;;;;;;37.3;22.6;;;;;;;-5.12;76.55762;939.6178;;;;
2022/03/08 04:42:51;;;;;;;38.7;22.8;;;;;;;-5.17;76.69043;939.6165;;;;
2022/03/08 04:45:17;;;;;;;39.7;23.2;;;;;;;-5.1;76.49316;939.5832;;;;
2022/03/08 04:47:41;;;;;;;37.4;23.1;;;;;;;-5.13;76.45508;939.5783;;;;
2022/03/08 04:50:16;;;;;;;40.4;23.4;;;;;;;-5.29;77.19531;939.5938;;;;
2022/03/08 04:52:39;;;;;;;39.4;23.3;;;;;;;-5.37;77.82129;939.6027;;;;
2022/03/08 04:55:05;;;;;;;41.3;23.8;;;;;;;-5.33;78.25586;939.5457;;;;
2022/03/08 04:57:29;;;;;;;43.1;23.9;;;;;;;-5.32;78.13574;939.5714;;;;
2022/03/08 04:59:57;;;;;;;45.2;23.4;;;;;;;-5.39;78.15723;939.5502;;;;
2022/03/08 05:02:22;;;;;;;40.5;24.2;;;;;;;-5.4;78.36426;939.582;;;;
2022/03/08 05:04:48;;;;;;;39.8;22.6;;;;;;;-5.47;78.67871;939.6235;;;;
2022/03/08 05:07:13;;;;;;;41.6;24.8;;;;;;;-5.43;78.89453;939.634;;;;
2022/03/08 05:09:41;;;;;;;43.1;24.1;;;;;;;-5.33;78.70605;939.5975;;;;
2022/03/08 05:12:08;;;;;;;40.7;23.6;;;;;;;-5.41;79.1748;939.4885;;;;
2022/03/08 05:14:32;;;;;;;43.4;24.4;;;;;;;-5.32;78.74121;939.5994;;;;
2022/03/08 05:17:03;;;;;;;43.9;24.8;;;;;;;-5.34;78.56348;939.6599;;;;
2022/03/08 05:20:18;;;;;;;42.2;24.6;;;;;;;-5.26;77.96094;939.5538;;;;
2022/03/08 05:22:48;;;;;;;44.3;26.5;;;;;;;-5.29;77.93359;939.7136;;;;
2022/03/08 05:25:18;;;;;;;44.8;26.2;;;;;;;-5.35;77.90039;939.7302;;;;
2022/03/08 05:27:47;;;;;;;46.1;26.5;;;;;;;-5.44;78.2793;939.6813;;;;
2022/03/08 05:30:13;;;;;;;50.7;27.8;;;;;;;-5.39;77.9043;939.7022;;;;
2022/03/08 05:32:37;;;;;;;41.5;25.8;;;;;;;-5.43;77.77637;939.7502;;;;
2022/03/08 05:35:02;;;;;;;44.1;24.7;;;;;;;-5.4;77.60547;939.7408;;;;
2022/03/08 05:37:27;;;;;;;48.6;25.6;;;;;;;-5.26;77.40039;939.7601;;;;
2022/03/08 05:39:55;;;;;;;44.2;25;;;;;;;-5.15;76.86816;939.7241;;;;
2022/03/08 05:42:20;;;;;;;43.7;25.4;;;;;;;-5.16;76.54883;939.7734;;;;
2022/03/08 05:44:47;;;;;;;44.2;23.6;;;;;;;-5.08;76.23438;939.7336;;;;
2022/03/08 05:47:12;;;;;;;42.5;23.8;;;;;;;-5.13;76.61035;939.7888;;;;
2022/03/08 05:49:39;;;;;;;44.9;24.8;;;;;;;-5.02;76.27734;939.8278;;;;
2022/03/08 05:52:04;;;;;;;49.8;24.9;;;;;;;-4.91;75.84668;939.8209;;;;
2022/03/08 05:55:04;;;;;;;43.8;24.9;;;;;;;-4.82;75.14551;939.7899;;;;
2022/03/08 05:57:29;;;;;;;38.5;23.2;;;;;;;-4.85;74.25977;939.7795;;;;
2022/03/08 05:59:57;;;;;;;40.7;23.6;;;;;;;-4.79;73.6875;939.829;;;;
2022/03/08 06:02:23;;;;;;;40.9;22.1;;;;;;;-4.81;74.04785;939.8117;;;;
2022/03/08 06:04:47;;;;;;;41.1;22.6;;;;;;;-4.66;73.23633;939.822;;;;
2022/03/08 06:07:12;;;;;;;38;22;;;;;;;-4.55;73.02539;939.7205;;;;
2022/03/08 06:09:38;;;;;;;38.1;22.3;;;;;;;-4.51;73.1875;939.8616;;;;
2022/03/08 06:12:05;;;;;;;37.8;21.3;;;;;;;-4.38;72.25098;939.8745;;;;
2022/03/08 06:14:30;;;;;;;39.3;22.8;;;;;;;-4.52;73.03027;940.0035;;;;
2022/03/08 06:17:00;;;;;;;40.2;23.3;;;;;;;-4.79;74.50098;940.0554;;;;
2022/03/08 06:19:25;;;;;;;41.6;23.7;;;;;;;-4.83;74.88184;940.0148;;;;
2022/03/08 06:21:50;;;;;;;39.3;22.2;;;;;;;-4.85;75.29492;940.0652;;;;
2022/03/08 06:24:17;;;;;;;42;23.4;;;;;;;-4.78;74.97949;940.0378;;;;
2022/03/08 06:26:42;;;;;;;40.5;22.4;;;;;;;-4.86;75.41602;940.1245;;;;
2022/03/08 06:29:08;;;;;;;39.5;23.5;;;;;;;-5.02;76.25684;940.1636;;;;
2022/03/08 06:31:33;;;;;;;38.1;22.5;;;;;;;-5.09;77.02344;940.1847;;;;
2022/03/08 06:34:03;;;;;;;41.9;23.1;;;;;;;-5.05;77.24219;940.1563;;;;
2022/03/08 06:36:28;;;;;;;38.8;22.8;;;;;;;-5;77.10742;940.1814;;;;
2022/03/08 06:38:58;;;;;;;39.9;23.3;;;;;;;-4.98;77.20996;940.1481;;;;
2022/03/08 06:41:28;;;;;;;54.3;25;;;;;;;-4.94;77.47168;940.1779;;;;
2022/03/08 06:43:53;;;;;;;45.3;25.2;;;;;;;-4.82;77.32813;940.132;;;;
2022/03/08 06:46:20;;;;;;;47.9;26.7;;;;;;;-4.56;76.79102;940.1158;;;;
2022/03/08 06:48:46;;;;;;;45.1;25;;;;;;;-4.32;75.67773;940.2565;;;;
2022/03/08 06:51:13;;;;;;;40.5;22.4;;;;;;;-3.96;74.90527;940.1934;;;;
2022/03/08 06:53:38;;;;;;;36.1;20.7;;;;;;;-3.71;73.30469;940.2028;;;;
2022/03/08 06:56:05;;;;;;;35.3;21;;;;;;;-3.76;72.47852;940.2166;;;;
2022/03/08 06:58:30;;;;;;;38.4;22.4;;;;;;;-3.77;73.625;940.1572;;;;
2022/03/08 07:00:57;;;;;;;36.8;21.9;;;;;;;-3.58;72.70898;940.1453;;;;
2022/03/08 07:03:23;;;;;;;41.7;22;;;;;;;-3.36;71.32031;940.1014;;;;
2022/03/08 07:05:51;;;;;;;36.5;21;;;;;;;-3.32;71.29395;940.1242;;;;
2022/03/08 07:08:16;;;;;;;37.6;21.9;;;;;;;-3.36;71.54199;940.1465;;;;
2022/03/08 07:10:42;;;;;;;45.2;22.9;;;;;;;-3.36;72.10547;940.1839;;;;
2022/03/08 07:13:07;;;;;;;43.5;22.2;;;;;;;-3.21;71.91211;940.1597;;;;
2022/03/08 07:15:43;;;;;;;36.9;21.4;;;;;;;-2.94;70.93945;940.1263;;;;
2022/03/08 07:18:08;;;;;;;35.7;21.7;;;;;;;-3.08;70.63867;940.1147;;;;
2022/03/08 07:20:33;;;;;;;34.5;21;;;;;;;-3.23;70.74707;940.0848;;;;
2022/03/08 07:23:02;;;;;;;39.3;22.3;;;;;;;-3.18;71.75098;940.0525;;;;
2022/03/08 07:25:27;;;;;;;36.6;21.3;;;;;;;-2.7;71.32422;940.0737;;;;
2022/03/08 07:27:57;;;;;;;32.3;19.4;;;;;;;-2.63;70.16113;940.1161;;;;
2022/03/08 07:30:22;;;;;;;35;20.6;;;;;;;-2.27;68.44922;940.1038;;;;
2022/03/08 07:32:49;;;;;;;34.6;20.4;;;;;;;-2.21;68.18066;940.1019;;;;
2022/03/08 07:35:13;;;;;;;44.1;21.1;;;;;;;-1.87;67.94824;940.1071;;;;
2022/03/08 07:37:41;;;;;;;32.4;19.4;;;;;;;-1.63;64.94727;940.1063;;;;
2022/03/08 07:40:06;;;;;;;32.7;19.9;;;;;;;-1.73;65.33105;940.0592;;;;
2022/03/08 07:42:34;;;;;;;35.2;19.1;;;;;;;-1.52;64.12207;940.0733;;;;
2022/03/08 07:44:59;;;;;;;27.9;18.1;;;;;;;-1.32;62.96387;940.0253;;;;
2022/03/08 07:47:28;;;;;;;34.2;19.4;;;;;;;-0.73;62.67383;939.967;;;;
2022/03/08 07:49:53;;;;;;;29.4;18.8;;;;;;;-0.27;60.93848;939.8441;;;;
2022/03/08 07:52:20;;;;;;;33.9;21.9;;;;;;;-0.52;61.76953;939.8345;;;;
2022/03/08 07:54:45;;;;;;;29.9;19.6;;;;;;;-0.09;60.18359;939.949;;;;
2022/03/08 07:57:13;;;;;;;32.7;19.8;;;;;;;0.18;59.06445;939.9548;;;;
2022/03/08 07:59:38;;;;;;;32.3;18.7;;;;;;;0.12;58.15234;939.9688;;;;
2022/03/08 08:02:05;;;;;;;34.6;18.4;;;;;;;0.33;58.03711;939.9892;;;;
2022/03/08 08:04:30;;;;;;;34;18.6;;;;;;;0.67;56.72266;939.9683;;;;
2022/03/08 08:06:56;;;;;;;29.4;18.8;;;;;;;1.29;54.76074;939.9489;;;;
2022/03/08 08:09:21;;;;;;;29.4;18.2;;;;;;;1.34;53.32617;939.9105;;;;
2022/03/08 08:11:49;;;;;;;35.1;20.1;;;;;;;1.58;53.04297;939.9037;;;;
2022/03/08 08:14:14;;;;;;;31.8;19.8;;;;;;;1.24;53.24707;939.8144;;;;
2022/03/08 08:16:45;;;;;;;28.9;17.7;;;;;;;0.71;54.19531;939.7703;;;;
2022/03/08 08:19:12;;;;;;;29.7;18.1;;;;;;;0.71;54.09473;939.7992;;;;
2022/03/08 08:21:37;;;;;;;32.5;19.7;;;;;;;0.36;55.26563;939.7989;;;;
2022/03/08 08:24:06;;;;;;;28.9;17.1;;;;;;;0.02;55.97754;939.7908;;;;
2022/03/08 08:26:31;;;;;;;28.3;17.5;;;;;;;0.65;55.33594;939.7299;;;;
2022/03/08 08:28:57;;;;;;;25.5;17.4;;;;;;;2.11;51.56543;939.7156;;;;
2022/03/08 08:31:23;;;;;;;26.2;16.7;;;;;;;3.39;47.80176;939.5968;;;;
2022/03/08 08:33:50;;;;;;;24.2;16.6;;;;;;;4.38;45.38086;939.573;;;;
2022/03/08 08:36:16;;;;;;;24.1;15.7;;;;;;;4.39;46.14746;939.5385;;;;
2022/03/08 08:38:41;;;;;;;26.2;17.2;;;;;;;6.01;42.76367;939.5363;;;;
2022/03/08 08:41:06;;;;;;;25.9;17.8;;;;;;;5.33;41.37598;939.3929;;;;
2022/03/08 08:43:31;;;;;;;25.3;17.5;;;;;;;4.68;43.3291;939.4481;;;;
2022/03/08 08:45:57;;;;;;;25.4;18.1;;;;;;;6.09;41.26855;939.3795;;;;
2022/03/08 08:48:23;;;;;;;24.4;16.7;;;;;;;6.73;39.47363;939.3222;;;;
2022/03/08 08:50:51;;;;;;;23.7;17.5;;;;;;;8.81;37.58301;939.1739;;;;
2022/03/08 08:53:16;;;;;;;24.2;17.7;;;;;;;9.96;33.00977;939.1805;;;;
2022/03/08 08:55:42;;;;;;;23.3;17.4;;;;;;;9.74;34.61133;939.0961;;;;
2022/03/08 08:58:07;;;;;;;23.6;17.6;;;;;;;10.13;33.35352;939.1033;;;;
2022/03/08 09:00:34;;;;;;;24.4;17.7;;;;;;;8.63;34.35254;939.109;;;;
2022/03/08 09:02:59;;;;;;;27;17.9;;;;;;;6.45;37.55957;939.1881;;;;
2022/03/08 09:05:28;;;;;;;26.1;18.9;;;;;;;6.28;38.76563;939.1271;;;;
2022/03/08 09:07:53;;;;;;;30.9;19.4;;;;;;;8.32;36.53027;939.1016;;;;
2022/03/08 09:10:23;;;;;;;37.2;24.4;;;;;;;7.68;36.2832;939.1188;;;;
2022/03/08 09:12:51;;;;;;;25.9;18.5;;;;;;;6.97;37.41211;939.1708;;;;
2022/03/08 09:15:15;;;;;;;21.5;17.3;;;;;;;7.68;35.89746;939.1758;;;;
2022/03/08 09:17:40;;;;;;;24.7;17.8;;;;;;;10.3;32.66016;939.1967;;;;
2022/03/08 09:20:09;;;;;;;23.6;16.8;;;;;;;11.42;31.25586;939.2714;;;;
2022/03/08 09:22:34;;;;;;;20.8;16.3;;;;;;;9.23;32.7041;939.2494;;;;
2022/03/08 09:25:00;;;;;;;21.7;16.9;;;;;;;10.94;31.47363;939.1437;;;;
2022/03/08 09:27:25;;;;;;;21.4;16.6;;;;;;;12.61;28.38281;939.0739;;;;
2022/03/08 09:29:50;;;;;;;21.1;17;;;;;;;13.16;28.49805;939.0002;;;;
2022/03/08 09:32:16;;;;;;;19.7;16.4;;;;;;;15;26.4502;938.8995;;;;
2022/03/08 09:34:41;;;;;;;21.1;16;;;;;;;15.13;25.12012;938.9278;;;;
2022/03/08 09:37:08;;;;;;;20.2;16;;;;;;;12.73;27.04785;938.959;;;;
2022/03/08 09:39:34;;;;;;;22.2;17.1;;;;;;;11.36;29.4668;938.9158;;;;
2022/03/08 09:41:58;;;;;;;20.4;16;;;;;;;14.16;26.46875;938.9061;;;;
2022/03/08 09:44:24;;;;;;;18.4;15.2;;;;;;;15.23;25.20605;938.8631;;;;
2022/03/08 09:46:50;;;;;;;18.7;15.4;;;;;;;15.76;24.43945;938.8507;;;;
2022/03/08 09:49:15;;;;;;;19.5;15.6;;;;;;;15.4;25.19336;938.8225;;;;
2022/03/08 09:51:43;;;;;;;20.9;15.9;;;;;;;15.21;25.14746;938.802;;;;
2022/03/08 09:54:08;;;;;;;18.3;15.3;;;;;;;15.91;24.36719;938.8126;;;;
2022/03/08 09:56:35;;;;;;;21;16.4;;;;;;;15.29;25.53223;938.7874;;;;
2022/03/08 09:59:00;;;;;;;23;17.4;;;;;;;14.05;27.07227;938.7888;;;;
2022/03/08 10:01:28;;;;;;;21.7;15.8;;;;;;;14.83;26.52051;938.741;;;;
2022/03/08 10:03:57;;;;;;;22.5;15.8;;;;;;;14.89;26.06348;938.7463;;;;
2022/03/08 10:06:22;;;;;;;21.7;15.6;;;;;;;14.52;25.77637;938.8047;;;;
2022/03/08 10:08:48;;;;;;;22.2;15.9;;;;;;;13.52;27.15332;938.7611;;;;
2022/03/08 10:11:15;;;;;;;22;16.3;;;;;;;14.03;26.26465;938.7969;;;;
2022/03/08 10:13:46;;;;;;;20.5;15.8;;;;;;;13.82;26.33301;938.7139;;;;
2022/03/08 10:16:12;;;;;;;19.5;15;;;;;;;13.8;26.57324;938.7609;;;;
2022/03/08 10:18:37;;;;;;;20.6;15.3;;;;;;;13.78;26.89453;938.7193;;;;
2022/03/08 10:21:02;;;;;;;20.1;14.9;;;;;;;12.47;27.82227;938.72;;;;
2022/03/08 10:23:31;;;;;;;21;15.7;;;;;;;12.22;28.3457;938.6799;;;;
2022/03/08 10:25:57;;;;;;;21.5;16.8;;;;;;;12.48;28.06348;938.653;;;;
2022/03/08 10:28:24;;;;;;;22.7;17.5;;;;;;;12.38;28.36719;938.7307;;;;
2022/03/08 10:30:49;;;;;;;24.7;18.5;;;;;;;11.84;30.1875;938.7654;;;;
2022/03/08 10:33:19;;;;;;;24.7;18.5;;;;;;;10.45;32.95605;938.8564;;;;
2022/03/08 10:35:39;;;;;;;21.3;17.4;;;;;;;9.71;34.14063;938.9462;;;;
2022/03/08 10:38:06;;;;;;;24.7;19.2;;;;;;;9.77;34.875;938.908;;;;
2022/03/08 10:40:32;;;;;;;25;19.2;;;;;;;10.38;34.02344;938.9389;;;;
2022/03/08 10:42:58;;;;;;;24.6;19.9;;;;;;;9.85;35.30371;938.9444;;;;
2022/03/08 10:45:24;;;;;;;25.6;19;;;;;;;10.4;33.86523;938.8572;;;;
2022/03/08 10:47:51;;;;;;;24.3;19.8;;;;;;;10.13;34.49414;938.9155;;;;
2022/03/08 10:50:16;;;;;;;24.1;18.8;;;;;;;9.93;34.21582;939.0297;;;;
2022/03/08 10:52:45;;;;;;;27.3;19.6;;;;;;;10.05;34.11133;939.0244;;;;
2022/03/08 10:55:10;;;;;;;22.5;18.6;;;;;;;10.35;33.63281;938.9465;;;;
2022/03/08 10:57:36;;;;;;;25.3;19.1;;;;;;;9.85;34.36914;938.938;;;;
2022/03/08 11:00:01;;;;;;;22.6;18.5;;;;;;;9.8;34.90137;939.0055;;;;
2022/03/08 11:02:30;;;;;;;25.2;19.9;;;;;;;9.72;36.06836;938.9956;;;;
2022/03/08 11:04:55;;;;;;;25.6;19.8;;;;;;;10.57;33.31934;938.9731;;;;
2022/03/08 11:07:23;;;;;;;25.3;20;;;;;;;10.86;33.67285;938.8451;;;;
2022/03/08 11:09:48;;;;;;;29.2;20.4;;;;;;;11.2;32.7959;938.7566;;;;
2022/03/08 11:12:16;;;;;;;25.5;18.6;;;;;;;11.7;32.11328;938.7449;;;;
2022/03/08 11:14:41;;;;;;;22.9;19.1;;;;;;;11.78;32.15234;938.6696;;;;
2022/03/08 11:17:07;;;;;;;24.4;19.6;;;;;;;11.43;32.08105;938.6552;;;;
2022/03/08 11:19:34;;;;;;;25.5;20.2;;;;;;;11.8;32.60156;938.6795;;;;
2022/03/08 11:22:02;;;;;;;24.8;19.1;;;;;;;11.63;32.26758;938.5387;;;;
2022/03/08 11:24:35;;;;;;;24.2;18.7;;;;;;;11.9;31.48633;938.4856;;;;
2022/03/08 11:27:00;;;;;;;24.6;19;;;;;;;11.9;32.23047;938.6021;;;;
2022/03/08 11:29:26;;;;;;;24;18.8;;;;;;;11.68;32.00781;938.6195;;;;
2022/03/08 11:31:51;;;;;;;25.8;19.5;;;;;;;12.16;31.36719;938.5316;;;;
2022/03/08 11:34:18;;;;;;;20.4;17.6;;;;;;;12.39;30.52441;938.5319;;;;
2022/03/08 11:36:41;;;;;;;24.2;18.9;;;;;;;12.72;30.39746;938.4333;;;;
2022/03/08 11:39:08;;;;;;;23.2;18.8;;;;;;;12.73;30.53613;938.3926;;;;
2022/03/08 11:41:33;;;;;;;21.4;18.2;;;;;;;12.16;31.34375;938.4406;;;;
2022/03/08 11:44:01;;;;;;;22.6;18.1;;;;;;;12.56;31.12012;938.3856;;;;
2022/03/08 11:46:26;;;;;;;25.5;18.9;;;;;;;12.69;31.25684;938.4461;;;;
2022/03/08 11:48:52;;;;;;;21.7;17.7;;;;;;;13.26;29.48145;938.4378;;;;
2022/03/08 11:51:17;;;;;;;22.4;18.3;;;;;;;14.32;28.30957;938.4484;;;;
2022/03/08 11:53:46;;;;;;;21.8;18;;;;;;;14.21;27.99121;938.4086;;;;
2022/03/08 11:56:09;;;;;;;23.7;17.7;;;;;;;14.5;27.33105;938.4217;;;;
2022/03/08 11:58:35;;;;;;;20.8;17.7;;;;;;;14.32;27.2041;938.4428;;;;
2022/03/08 12:01:00;;;;;;;23.2;18.1;;;;;;;14.78;26.62109;938.3803;;;;
2022/03/08 12:03:25;;;;;;;22.9;18;;;;;;;14.49;26.96094;938.3256;;;;
2022/03/08 12:05:57;;;;;;;21.2;17.1;;;;;;;14.95;26.18262;938.3553;;;;
2022/03/08 12:08:23;;;;;;;22.4;17;;;;;;;15.36;25.70996;938.3462;;;;
2022/03/08 12:10:47;;;;;;;19.5;16.3;;;;;;;16.67;24.43262;938.2994;;;;
2022/03/08 12:13:14;;;;;;;19.9;15.6;;;;;;;16.45;23.91113;938.2994;;;;
2022/03/08 12:15:47;;;;;;;18.6;15.6;;;;;;;15.28;25.49707;938.2531;;;;
2022/03/08 12:18:18;;;;;;;22.1;17.2;;;;;;;14.18;26.98828;938.3663;;;;
2022/03/08 12:20:42;;;;;;;20.5;16.3;;;;;;;14.57;26.63184;938.3172;;;;
2022/03/08 12:23:11;;;;;;;20.2;15.7;;;;;;;15.31;25.25684;938.3154;;;;
2022/03/08 12:25:37;;;;;;;20.7;16.5;;;;;;;15.71;25.30371;938.3406;;;;
2022/03/08 12:28:04;;;;;;;19;15.4;;;;;;;16.16;23.87207;938.2534;;;;
2022/03/08 12:30:29;;;;;;;20.8;15.7;;;;;;;17.14;24.34277;938.2776;;;;
2022/03/08 12:32:54;;;;;;;19.4;15.8;;;;;;;18.23;22.43945;938.1788;;;;
2022/03/08 12:35:25;;;;;;;18.4;14.4;;;;;;;19.69;20.76465;938.1116;;;;
2022/03/08 12:37:50;;;;;;;17.2;14.2;;;;;;;19.68;20.82227;938.1249;;;;
2022/03/08 12:40:16;;;;;;;17.8;15;;;;;;;19.4;20.82129;938.1245;;;;
2022/03/08 12:42:44;;;;;;;18.5;14;;;;;;;18.71;21.10254;938.0414;;;;
2022/03/08 12:45:09;;;;;;;18.1;14.5;;;;;;;17.29;23.52734;938.0253;;;;
2022/03/08 12:47:37;;;;;;;19.4;14.8;;;;;;;16.84;24.04883;938.0857;;;;
2022/03/08 12:50:02;;;;;;;20.1;14.8;;;;;;;17.84;22.20996;938.0586;;;;
2022/03/08 12:52:30;;;;;;;19.5;14.9;;;;;;;18.16;22.22656;938.0921;;;;
2022/03/08 12:54:55;;;;;;;18.5;14.1;;;;;;;17.97;22.18164;938.0385;;;;
2022/03/08 12:57:20;;;;;;;19.3;14.1;;;;;;;17.79;22.52148;938.0407;;;;
2022/03/08 12:59:45;;;;;;;16.5;13.5;;;;;;;17.6;22.63965;938.0854;;;;
2022/03/08 13:02:10;;;;;;;18.9;13.9;;;;;;;17.64;22.61816;938.072;;;;
2022/03/08 13:04:35;;;;;;;18.4;14;;;;;;;17.47;22.67871;938.0675;;;;
2022/03/08 13:07:00;;;;;;;18.1;14.1;;;;;;;19.05;21.18848;938.0422;;;;
2022/03/08 13:09:25;;;;;;;18.7;13.9;;;;;;;17.79;21.96387;938.1358;;;;
2022/03/08 13:11:53;;;;;;;17.5;14;;;;;;;17.31;22.58984;938.1005;;;;
2022/03/08 13:14:20;;;;;;;16.6;13.5;;;;;;;16.69;23.37988;938.1472;;;;
2022/03/08 13:16:43;;;;;;;18.8;13.8;;;;;;;17.8;22.25488;938.1726;;;;
2022/03/08 13:19:09;;;;;;;16.2;12.7;;;;;;;19.3;20.94434;938.1189;;;;
2022/03/08 13:21:34;;;;;;;16.9;13.4;;;;;;;20.04;19.83594;938.082;;;;
2022/03/08 13:23:59;;;;;;;17.3;12.6;;;;;;;20.14;19.81738;938.0193;;;;
2022/03/08 13:28:50;;;;;;;22.5;12.9;;;;;;;18.58;21.20117;938.0839;;;;
2022/03/08 13:31:17;;;;;;;16.2;12.7;;;;;;;19.66;20.30859;938.0639;;;;
2022/03/08 13:33:45;;;;;;;16.6;12.5;;;;;;;17.56;22.05664;938.0717;;;;
2022/03/08 13:36:09;;;;;;;17.6;13;;;;;;;18.3;21.03613;938.0742;;;;
2022/03/08 13:38:34;;;;;;;18.2;13.5;;;;;;;18.44;21.75195;938.0798;;;;
2022/03/08 13:40:59;;;;;;;16.5;12.8;;;;;;;17.81;21.4082;938.087;;;;
2022/03/08 13:43:25;;;;;;;17.3;12.7;;;;;;;16.33;24.08887;938.0725;;;;
2022/03/08 13:45:49;;;;;;;15.2;12.3;;;;;;;16.81;23.06152;938.1309;;;;
2022/03/08 13:48:14;;;;;;;17.8;12;;;;;;;17.9;21.60938;938.0953;;;;
2022/03/08 13:50:39;;;;;;;16.1;12;;;;;;;16.26;23.25293;938.0701;;;;
2022/03/08 13:53:05;;;;;;;16.2;12.3;;;;;;;16.31;23.3252;938.0541;;;;
2022/03/08 13:55:32;;;;;;;16.5;12.4;;;;;;;18;21.75391;938.1425;;;;
2022/03/08 13:57:57;;;;;;;15;11.5;;;;;;;17.55;21.79004;938.1484;;;;
2022/03/08 14:00:27;;;;;;;16.4;11.7;;;;;;;16.62;22.72754;938.1358;;;;
2022/03/08 14:02:52;;;;;;;14.9;11.3;;;;;;;17.43;21.59863;938.1085;;;;
2022/03/08 14:05:20;;;;;;;14.3;11;;;;;;;18.3;21.26855;938.2532;;;;
2022/03/08 14:07:45;;;;;;;15.2;11.4;;;;;;;17.7;21.32129;938.2744;;;;
2022/03/08 14:10:14;;;;;;;13.8;10.8;;;;;;;16.16;22.81934;938.3917;;;;
2022/03/08 14:12:39;;;;;;;14.6;11.1;;;;;;;14.41;25.13672;938.3911;;;;